createdAt,value
2018-09-09T09:56:19.343Z,102064.59
2018-09-09T09:58:47.693Z,102062.59
2018-09-09T10:01:16.103Z,102069.22
2018-09-09T10:03:44.551Z,102073.45
2018-09-09T10:06:13.009Z,102063.29
2018-09-09T10:08:41.544Z,102072.31
2018-09-09T10:11:09.980Z,102078.62
2018-09-09T10:13:38.398Z,102064.74
2018-09-09T10:16:07.447Z,102056.61
2018-09-09T10:18:35.926Z,102055.93
2018-09-09T10:21:04.485Z,102058.64
2018-09-09T10:23:32.859Z,102058.89
2018-09-09T10:26:01.360Z,102063.28
2018-09-09T10:28:29.790Z,102068.01
2018-09-09T10:30:58.264Z,102058.11
2018-09-09T10:33:29.266Z,102063.91
2018-09-09T10:35:57.624Z,102062.91
2018-09-09T10:38:26.127Z,102066.41
2018-09-09T10:40:54.538Z,102071.98
2018-09-09T10:43:23.323Z,102056.81
2018-09-09T10:45:51.933Z,102051.56
2018-09-09T10:48:21.279Z,102059.11
2018-09-09T10:50:49.656Z,102061.45
2018-09-09T10:53:18.321Z,102053.29
2018-09-09T10:55:46.708Z,102058.64
2018-09-09T10:58:15.112Z,102055.89
2018-09-09T11:00:43.628Z,102056.44
2018-09-09T11:03:12.147Z,102057.42
2018-09-09T11:05:40.778Z,102049.94
2018-09-09T11:08:13.410Z,102045.75
2018-09-09T11:10:41.953Z,102047.93
2018-09-09T11:13:10.345Z,102042.69
2018-09-09T11:15:38.875Z,102043.31
2018-09-09T11:18:07.733Z,102048.00
2018-09-09T11:20:36.247Z,102046.02
2018-09-09T11:23:04.671Z,102044.66
2018-09-09T11:25:33.400Z,102039.20
2018-09-09T11:28:01.869Z,102040.09
2018-09-09T11:30:30.338Z,102042.14
2018-09-09T11:32:59.223Z,102039.97
2018-09-09T11:35:27.679Z,102046.65
2018-09-09T11:37:56.437Z,102041.88
2018-09-09T11:40:24.901Z,102046.81
2018-09-09T11:42:53.262Z,102038.22
2018-09-09T11:45:21.674Z,102030.95
2018-09-09T11:47:50.132Z,102030.50
2018-09-09T11:50:18.482Z,102035.59
2018-09-09T11:52:47.815Z,102033.17
2018-09-09T11:55:16.169Z,102033.09
2018-09-09T11:57:44.529Z,102042.38
2018-09-09T12:00:12.869Z,102031.37
2018-09-09T12:02:41.226Z,102028.95
2018-09-09T12:05:09.543Z,102026.89
2018-09-09T12:07:37.895Z,102027.45
2018-09-09T12:10:06.595Z,102028.09
2018-09-09T12:12:39.244Z,102030.02
2018-09-09T12:15:07.691Z,102033.73
2018-09-09T12:17:36.049Z,102029.11
2018-09-09T12:20:04.454Z,102023.17
2018-09-09T12:22:33.507Z,102030.13
2018-09-09T12:25:02.932Z,102023.03
2018-09-09T12:27:31.488Z,102020.67
2018-09-09T12:30:00.165Z,102024.27
2018-09-09T12:32:28.521Z,102022.09
2018-09-09T12:34:56.961Z,102026.14
2018-09-09T12:37:25.589Z,102026.76
2018-09-09T12:39:53.988Z,102024.57
2018-09-09T12:42:22.290Z,102026.46
2018-09-09T12:44:56.019Z,102018.84
2018-09-09T12:47:29.542Z,102031.78
2018-09-09T12:49:57.978Z,102019.19
2018-09-09T12:52:26.298Z,102018.56
2018-09-09T12:54:54.685Z,102027.86
2018-09-09T12:57:23.023Z,102025.77
2018-09-09T12:59:51.397Z,102026.06
2018-09-09T13:02:19.772Z,102023.84
2018-09-09T13:04:48.214Z,102027.95
2018-09-09T13:07:16.864Z,102021.69
2018-09-09T13:09:45.203Z,102020.13
2018-09-09T13:12:13.683Z,102014.53
2018-09-09T13:14:42.032Z,102007.61
2018-09-09T13:17:10.507Z,102010.79
2018-09-09T13:19:38.866Z,102010.52
2018-09-09T13:22:07.323Z,102016.22
2018-09-09T13:24:35.706Z,102014.30
2018-09-09T13:27:05.104Z,102005.16
2018-09-09T13:29:34.406Z,102008.77
2018-09-09T13:32:03.553Z,102010.13
2018-09-09T13:34:31.982Z,102008.30
2018-09-09T13:37:01.135Z,102013.59
2018-09-09T13:39:29.916Z,102009.88
2018-09-09T13:41:58.319Z,102007.61
2018-09-09T13:44:27.948Z,102004.89
2018-09-09T13:46:56.554Z,102007.73
2018-09-09T13:49:25.081Z,102008.70
2018-09-09T13:51:53.836Z,102006.04
2018-09-09T13:54:22.301Z,101999.91
2018-09-09T13:56:50.739Z,102003.03
2018-09-09T13:59:19.576Z,102002.31
2018-09-09T14:01:48.011Z,101996.20
2018-09-09T14:04:16.563Z,101992.70
2018-09-09T14:06:44.989Z,101993.61
2018-09-09T14:09:13.582Z,101996.55
2018-09-09T14:11:42.062Z,101990.36
2018-09-09T14:14:10.782Z,101983.86
2018-09-09T14:16:39.137Z,101981.25
2018-09-09T14:19:07.585Z,101962.77
2018-09-09T14:21:36.519Z,101978.63
2018-09-09T14:24:05.535Z,101965.67
2018-09-09T14:26:34.059Z,101953.31
2018-09-09T14:29:02.420Z,101968.55
2018-09-09T14:31:30.769Z,101958.73
2018-09-09T14:33:59.456Z,101961.78
2018-09-09T14:36:28.670Z,101971.06
2018-09-09T14:38:57.019Z,101967.74
2018-09-09T14:41:25.971Z,101968.39
2018-09-09T14:43:54.383Z,101965.66
2018-09-09T14:46:23.553Z,101963.09
2018-09-09T14:48:51.964Z,101953.77
2018-09-09T14:51:20.449Z,101951.66
2018-09-09T14:53:48.967Z,101953.92
2018-09-09T14:56:17.407Z,101956.34
2018-09-09T14:58:45.849Z,101953.57
2018-09-09T15:01:14.321Z,101955.95
2018-09-09T15:03:42.739Z,101949.06
2018-09-09T15:06:11.180Z,101953.13
2018-09-09T15:08:39.522Z,101954.19
2018-09-09T15:11:08.442Z,101949.11
2018-09-09T15:13:37.725Z,101953.13
2018-09-09T15:16:06.433Z,101953.20
2018-09-09T15:18:34.789Z,101959.77
2018-09-09T15:21:03.863Z,101958.63
2018-09-09T15:23:32.259Z,101956.11
2018-09-09T15:26:00.627Z,101944.51
2018-09-09T15:28:29.173Z,101945.30
2018-09-09T15:30:57.598Z,101946.09
2018-09-09T15:33:26.053Z,101948.76
2018-09-09T15:35:54.510Z,101939.33
2018-09-09T15:38:22.849Z,101942.81
2018-09-09T15:40:51.281Z,101942.37
2018-09-09T15:43:19.600Z,101946.60
2018-09-09T15:45:48.816Z,101933.92
2018-09-09T15:48:17.247Z,101943.03
2018-09-09T15:50:46.592Z,101931.75
2018-09-09T15:53:14.995Z,101933.08
2018-09-09T15:55:43.308Z,101927.39
2018-09-09T15:58:11.619Z,101931.19
2018-09-09T16:00:39.943Z,101927.77
2018-09-09T16:03:08.980Z,101928.53
2018-09-09T16:05:37.513Z,101932.25
2018-09-09T16:08:06.506Z,101929.44
2018-09-09T16:10:35.486Z,101929.34
2018-09-09T16:13:04.038Z,101927.66
2018-09-09T16:15:32.531Z,101918.48
2018-09-09T16:18:01.835Z,101914.97
2018-09-09T16:20:30.325Z,101910.57
2018-09-09T16:22:58.954Z,101904.61
2018-09-09T16:25:27.505Z,101905.94
2018-09-09T16:27:56.298Z,101906.43
2018-09-09T16:30:25.201Z,101913.48
2018-09-09T16:32:53.731Z,101911.23
2018-09-09T16:35:22.090Z,101903.88
2018-09-09T16:37:50.966Z,101910.34
2018-09-09T16:40:19.508Z,101910.50
2018-09-09T16:42:47.862Z,101908.55
2018-09-09T16:45:16.267Z,101915.83
2018-09-09T16:47:44.639Z,101911.98
2018-09-09T16:50:13.093Z,101913.97
2018-09-09T16:52:41.521Z,101907.02
2018-09-09T16:55:09.918Z,101907.55
2018-09-09T16:57:38.378Z,101914.02
2018-09-09T17:00:07.366Z,101905.52
2018-09-09T17:02:35.845Z,101909.20
2018-09-09T17:05:04.295Z,101912.45
2018-09-09T17:07:32.775Z,101908.34
2018-09-09T17:10:01.370Z,101909.92
2018-09-09T17:12:29.734Z,101909.92
2018-09-09T17:14:58.132Z,101911.98
2018-09-09T17:17:26.700Z,101910.52
2018-09-09T17:19:55.184Z,101912.84
2018-09-09T17:22:23.709Z,101915.17
2018-09-09T17:24:54.435Z,101908.84
2018-09-09T17:30:10.463Z,101905.61
2018-09-09T17:32:40.324Z,101911.74
2018-09-09T17:35:11.178Z,101914.67
2018-09-09T17:37:39.865Z,101916.16
2018-09-09T17:40:08.301Z,101917.59
2018-09-09T17:42:37.805Z,101911.20
2018-09-09T17:45:07.465Z,101920.02
2018-09-09T17:47:38.727Z,101913.67
2018-09-09T17:50:08.322Z,101915.40
2018-09-09T17:52:38.008Z,101912.77
2018-09-09T17:55:07.954Z,101910.12
2018-09-09T17:57:37.008Z,101914.61
2018-09-09T18:00:10.198Z,101922.32
2018-09-09T18:02:38.670Z,101922.47
2018-09-09T18:05:07.471Z,101912.83
2018-09-09T18:07:35.921Z,101918.88
2018-09-09T18:10:05.434Z,101913.83
2018-09-09T18:12:34.171Z,101921.25
2018-09-09T18:15:04.157Z,101913.02
2018-09-09T18:17:33.691Z,101915.86
2018-09-09T18:20:02.620Z,101910.28
2018-09-09T18:22:31.019Z,101904.05
2018-09-09T18:24:59.462Z,101906.36
2018-09-09T18:27:28.271Z,101904.05
2018-09-09T18:29:56.989Z,101915.55
2018-09-09T18:32:26.492Z,101912.97
2018-09-09T18:34:55.144Z,101910.14
2018-09-09T18:37:23.573Z,101911.36
2018-09-09T18:39:52.053Z,101910.10
2018-09-09T18:42:20.474Z,101913.51
2018-09-09T18:44:49.093Z,101907.60
2018-09-09T18:47:17.558Z,101911.59
2018-09-09T18:49:46.085Z,101909.59
2018-09-09T18:52:14.546Z,101914.92
2018-09-09T18:54:43.457Z,101915.37
2018-09-09T18:57:12.685Z,101919.16
2018-09-09T18:59:41.732Z,101914.27
2018-09-09T19:02:10.615Z,101917.19
2018-09-09T19:04:39.285Z,101918.84
2018-09-09T19:07:07.970Z,101921.02
2018-09-09T19:09:37.020Z,101921.23
2018-09-09T19:12:05.888Z,101927.47
2018-09-09T19:14:38.437Z,101931.31
2018-09-09T19:17:11.207Z,101929.41
2018-09-09T19:19:44.353Z,101927.26
2018-09-09T19:22:14.048Z,101930.75
2018-09-09T19:24:42.847Z,101937.51
2018-09-09T19:29:56.402Z,101938.86
2018-09-09T19:32:27.948Z,101938.65
2018-09-09T19:35:01.848Z,101942.18
2018-09-09T19:37:38.368Z,101952.92
2018-09-09T19:40:07.531Z,101957.25
2018-09-09T19:42:48.382Z,101952.98
2018-09-09T19:50:41.316Z,101965.28
2018-09-09T19:53:15.569Z,101965.22
2018-09-09T19:58:16.243Z,101965.95
2018-09-09T20:00:44.625Z,101966.70
2018-09-09T20:03:13.025Z,101967.92
2018-09-09T20:05:41.421Z,101957.56
2018-09-09T20:08:09.861Z,101962.89
2018-09-09T20:10:38.782Z,101967.46
2018-09-09T20:13:07.310Z,101967.11
2018-09-09T20:15:35.652Z,101969.67
2018-09-09T20:18:04.631Z,101973.09
2018-09-09T20:20:33.029Z,101971.31
2018-09-09T20:23:01.423Z,101970.86
2018-09-09T20:25:29.756Z,101974.83
2018-09-09T20:27:58.042Z,101969.28
2018-09-09T20:30:26.504Z,101975.13
2018-09-09T20:32:54.922Z,101975.36
2018-09-09T20:35:23.233Z,101976.99
2018-09-09T20:37:51.569Z,101973.50
2018-09-09T20:40:19.934Z,101972.35
2018-09-09T20:42:49.367Z,101970.17
2018-09-09T20:45:18.180Z,101971.59
2018-09-09T20:47:46.570Z,101972.95
2018-09-09T20:50:15.162Z,101969.45
2018-09-09T20:52:44.010Z,101971.83
2018-09-09T20:55:12.370Z,101971.00
2018-09-09T20:57:40.786Z,101975.05
2018-09-09T21:00:09.296Z,101974.98
2018-09-09T21:02:37.849Z,101981.12
2018-09-09T21:05:06.499Z,101989.14
2018-09-09T21:07:34.966Z,101986.58
2018-09-09T21:10:03.497Z,101990.55
2018-09-09T21:12:31.924Z,101992.88
2018-09-09T21:15:04.200Z,101992.80
2018-09-09T21:17:32.842Z,102000.47
2018-09-09T21:20:01.244Z,101999.48
2018-09-09T21:22:29.993Z,102000.44
2018-09-09T21:24:59.721Z,101991.07
2018-09-09T21:27:28.741Z,101998.92
2018-09-09T21:29:57.168Z,101987.66
2018-09-09T21:32:25.603Z,101993.72
2018-09-09T21:34:54.076Z,101987.41
2018-09-09T21:37:22.414Z,101984.43
2018-09-09T21:39:50.811Z,101988.91
2018-09-09T21:42:19.900Z,101991.20
2018-09-09T21:44:48.437Z,101987.08
2018-09-09T21:47:16.838Z,101983.47
2018-09-09T21:49:45.242Z,101981.72
2018-09-09T21:52:13.705Z,101981.88
2018-09-09T21:54:42.072Z,101982.02
2018-09-09T21:57:10.364Z,101986.49
2018-09-09T21:59:38.730Z,101982.56
2018-09-09T22:02:09.002Z,101992.66
2018-09-09T22:04:38.140Z,101986.86
2018-09-09T22:07:10.215Z,101989.16
2018-09-09T22:09:39.146Z,101997.34
2018-09-09T22:12:09.014Z,101998.32
2018-09-09T22:14:37.528Z,101997.40
2018-09-09T22:17:06.130Z,101992.30
2018-09-09T22:19:34.475Z,101989.31
2018-09-09T22:22:03.600Z,101991.41
2018-09-09T22:24:31.964Z,101993.88
2018-09-09T22:27:00.358Z,101997.40
2018-09-09T22:29:28.893Z,101996.34
2018-09-09T22:31:57.425Z,101993.13
2018-09-09T22:34:25.875Z,101995.31
2018-09-09T22:36:54.264Z,102005.25
2018-09-09T22:39:22.707Z,102003.62
2018-09-09T22:41:51.024Z,101998.75
2018-09-09T22:44:19.386Z,101996.25
2018-09-09T22:46:47.707Z,101994.62
2018-09-09T22:49:16.036Z,102000.20
2018-09-09T22:51:44.506Z,102002.20
2018-09-09T22:54:12.905Z,102010.52
2018-09-09T22:56:41.389Z,101997.98
2018-09-09T22:59:09.860Z,102006.48
2018-09-09T23:01:38.358Z,102002.96
2018-09-09T23:04:06.686Z,101999.37
2018-09-09T23:06:35.052Z,102004.95
2018-09-09T23:09:05.379Z,102012.11
2018-09-09T23:11:33.785Z,102011.51
2018-09-09T23:14:02.129Z,102008.72
2018-09-09T23:16:30.545Z,102013.70
2018-09-09T23:18:58.847Z,102011.97
2018-09-09T23:21:27.468Z,102007.84
2018-09-09T23:23:55.878Z,102013.42
2018-09-09T23:26:24.282Z,102017.97
2018-09-09T23:28:52.878Z,102020.89
2018-09-09T23:31:21.273Z,102027.01
2018-09-09T23:33:49.674Z,102025.56
2018-09-09T23:36:18.043Z,102025.16
2018-09-09T23:38:46.420Z,102019.90
2018-09-09T23:41:14.736Z,102012.16
2018-09-09T23:43:43.072Z,102006.87
2018-09-09T23:46:11.401Z,102008.34
2018-09-09T23:48:39.723Z,102009.59
2018-09-09T23:51:08.589Z,102013.53
2018-09-09T23:53:36.945Z,102021.15
2018-09-09T23:56:05.377Z,102020.54
2018-09-09T23:58:33.810Z,102021.28
